Time;durP1;ratioP1;P1;durP2;ratioP2;P2;SDS_P1;SDS_P2;PMS_P1;PMS_P2;Temp;Humidity;BMP_temperature;BMP_pressure;BME280_temperature;BME280_humidity;BME280_pressure;Samples;Min_cycle;Max_cycle;Signal;HPM_P1;HPM_P2
2024/04/01 00:01:30;;;;;;;;;;;;;;;;;;5047157;28;19931;-62
2024/04/01 00:03:56;;;;;;;;;;;;;;;;;;5062103;28;20007;-62
2024/04/01 00:06:22;;;;;;;;;;;;;;;;;;5050810;28;19925;-62
2024/04/01 00:08:48;;;;;;;;;;;;;;;;;;5031757;28;20256;-62
2024/04/01 00:11:14;;;;;;;;;;;;;;;;;;5047256;28;19925;-62
2024/04/01 00:13:40;;;;;;;;;;;;;;;;;;5016255;28;19924;-62
2024/04/01 00:16:06;;;;;;;;;;;;;;;;;;5050312;28;19967;-62
2024/04/01 00:18:32;;;;;;;;;;;;;;;;;;5051446;28;19976;-62
2024/04/01 00:20:58;;;;;;;;;;;;;;;;;;5052780;28;20313;-62
2024/04/01 00:23:23;;;;;;;;;;;;;;;;;;5051867;28;19925;-62
2024/04/01 00:25:49;;;;;;;;;;;;;;;;;;5048757;28;19925;-62
2024/04/01 00:28:15;;;;;;;;;;;;;;;;;;5053148;28;19929;-62
2024/04/01 00:30:41;;;;;;;;;;;;;;;;;;5046739;28;19971;-62
2024/04/01 00:33:09;;;;;;;;;;;;;;;;;;5046554;28;19920;-62
2024/04/01 00:35:35;;;;;;;;;;;;;;;;;;5049254;28;19921;-62
2024/04/01 00:38:02;;;;;;;;;;;;;;;;;;5050149;28;19990;-63
2024/04/01 00:40:28;;;;;;;;;;;;;;;;;;5050661;28;19920;-63
2024/04/01 00:42:54;;;;;;;;;;;;;;;;;;5048863;28;20427;-62
2024/04/01 00:45:20;;;;;;;;;;;;;;;;;;5051400;28;20026;-63
2024/04/01 00:47:46;;;;;;;;;;;;;;;;;;5052506;28;20031;-63
2024/04/01 00:50:12;;;;;;;;;;;;;;;;;;5052441;28;19927;-63
2024/04/01 00:52:38;;;;;;;;;;;;;;;;;;5043916;28;20493;-63
2024/04/01 00:55:04;;;;;;;;;;;;;;;;;;5030254;28;19949;-63
2024/04/01 00:57:30;;;;;;;;;;;;;;;;;;5048659;28;19927;-63
2024/04/01 00:59:56;;;;;;;;;;;;;;;;;;5049983;28;19921;-63
2024/04/01 01:02:22;;;;;;;;;;;;;;;;;;5046956;28;19924;-63
2024/04/01 01:04:48;;;;;;;;;;;;;;;;;;5050353;28;20299;-63
2024/04/01 01:07:14;;;;;;;;;;;;;;;;;;5014233;28;20007;-63
2024/04/01 01:09:40;;;;;;;;;;;;;;;;;;5050479;28;20011;-63
2024/04/01 01:12:05;;;;;;;;;;;;;;;;;;5050957;28;20322;-63
2024/04/01 01:14:31;;;;;;;;;;;;;;;;;;5018961;28;19978;-62
2024/04/01 01:16:57;;;;;;;;;;;;;;;;;;5050863;28;20046;-62
2024/04/01 01:19:23;;;;;;;;;;;;;;;;;;5050969;28;20299;-62
2024/04/01 01:21:49;;;;;;;;;;;;;;;;;;5051072;28;19935;-62
2024/04/01 01:24:16;;;;;;;;;;;;;;;;;;5040386;28;19928;-62
2024/04/01 01:26:41;;;;;;;;;;;;;;;;;;5052270;22;19935;-62
2024/04/01 01:29:07;;;;;;;;;;;;;;;;;;5015610;28;19925;-63
2024/04/01 01:31:33;;;;;;;;;;;;;;;;;;5046291;28;19925;-62
2024/04/01 01:33:59;;;;;;;;;;;;;;;;;;5049943;28;20533;-62
2024/04/01 01:36:25;;;;;;;;;;;;;;;;;;5054800;28;19936;-62
2024/04/01 01:38:51;;;;;;;;;;;;;;;;;;5051261;28;19936;-63
2024/04/01 01:41:17;;;;;;;;;;;;;;;;;;5055610;28;19924;-63
2024/04/01 01:43:43;;;;;;;;;;;;;;;;;;5050994;28;20008;-63
2024/04/01 01:46:09;;;;;;;;;;;;;;;;;;5046938;28;20386;-63
2024/04/01 01:48:35;;;;;;;;;;;;;;;;;;5052334;28;19925;-63
2024/04/01 01:51:01;;;;;;;;;;;;;;;;;;5049814;28;19921;-63
2024/04/01 01:53:27;;;;;;;;;;;;;;;;;;5049027;28;19966;-63
2024/04/01 01:55:53;;;;;;;;;;;;;;;;;;5052442;28;19928;-63
2024/04/01 01:58:19;;;;;;;;;;;;;;;;;;5054195;28;19928;-63
2024/04/01 02:00:44;;;;;;;;;;;;;;;;;;5049883;28;20346;-63
2024/04/01 02:03:10;;;;;;;;;;;;;;;;;;5043610;28;19944;-63
2024/04/01 02:05:39;;;;;;;;;;;;;;;;;;5050694;28;19932;-63
2024/04/01 02:08:05;;;;;;;;;;;;;;;;;;5049735;28;20024;-63
2024/04/01 02:10:35;;;;;;;;;;;;;;;;;;5048024;28;20316;-63
2024/04/01 02:13:02;;;;;;;;;;;;;;;;;;5020708;28;19936;-63
2024/04/01 02:15:28;;;;;;;;;;;;;;;;;;5050667;28;19960;-63
2024/04/01 02:17:54;;;;;;;;;;;;;;;;;;5035688;28;19972;-63
2024/04/01 02:20:20;;;;;;;;;;;;;;;;;;5039061;28;20650;-63
2024/04/01 02:22:45;;;;;;;;;;;;;;;;;;5053123;28;20012;-63
2024/04/01 02:25:18;;;;;;;;;;;;;;;;;;5028935;28;19940;-63
2024/04/01 02:27:43;;;;;;;;;;;;;;;;;;5055329;28;19925;-63
2024/04/01 02:30:09;;;;;;;;;;;;;;;;;;5051171;28;19978;-63
2024/04/01 02:32:36;;;;;;;;;;;;;;;;;;5032151;28;19920;-63
2024/04/01 02:35:03;;;;;;;;;;;;;;;;;;5048689;28;19927;-63
2024/04/01 02:37:29;;;;;;;;;;;;;;;;;;5050023;28;20339;-63
2024/04/01 02:39:55;;;;;;;;;;;;;;;;;;5031198;28;19939;-63
2024/04/01 02:42:21;;;;;;;;;;;;;;;;;;5057762;28;19990;-64
2024/04/01 02:44:47;;;;;;;;;;;;;;;;;;5054404;28;19925;-63
2024/04/01 02:47:13;;;;;;;;;;;;;;;;;;5030742;28;20327;-63
2024/04/01 02:49:39;;;;;;;;;;;;;;;;;;5041868;28;19928;-63
2024/04/01 02:52:05;;;;;;;;;;;;;;;;;;5034201;28;19932;-63
2024/04/01 02:54:31;;;;;;;;;;;;;;;;;;5057195;28;19924;-63
2024/04/01 02:56:57;;;;;;;;;;;;;;;;;;5055551;28;19928;-63
2024/04/01 02:59:23;;;;;;;;;;;;;;;;;;5054153;28;19925;-64
2024/04/01 03:01:49;;;;;;;;;;;;;;;;;;5053990;28;19932;-63
2024/04/01 03:04:16;;;;;;;;;;;;;;;;;;5053554;28;19943;-63
2024/04/01 03:06:42;;;;;;;;;;;;;;;;;;5050782;28;19960;-63
2024/04/01 03:09:08;;;;;;;;;;;;;;;;;;5049408;28;19983;-64
2024/04/01 03:11:33;;;;;;;;;;;;;;;;;;5051369;28;19929;-63
2024/04/01 03:13:59;;;;;;;;;;;;;;;;;;5053208;28;19920;-63
2024/04/01 03:16:25;;;;;;;;;;;;;;;;;;5056229;28;20352;-64
2024/04/01 03:18:51;;;;;;;;;;;;;;;;;;5053604;28;19939;-63
2024/04/01 03:21:17;;;;;;;;;;;;;;;;;;5044867;28;19921;-64
2024/04/01 03:23:43;;;;;;;;;;;;;;;;;;5026048;28;20295;-63
2024/04/01 03:26:09;;;;;;;;;;;;;;;;;;5057635;28;20295;-63
2024/04/01 03:28:35;;;;;;;;;;;;;;;;;;5057634;28;19935;-64
2024/04/01 03:31:01;;;;;;;;;;;;;;;;;;5054575;28;19928;-63
2024/04/01 03:33:27;;;;;;;;;;;;;;;;;;5036485;28;19928;-63
2024/04/01 03:35:53;;;;;;;;;;;;;;;;;;5048823;28;21862;-64
2024/04/01 03:38:19;;;;;;;;;;;;;;;;;;5052107;28;19929;-63
2024/04/01 03:40:45;;;;;;;;;;;;;;;;;;5053510;28;19921;-63
2024/04/01 03:43:10;;;;;;;;;;;;;;;;;;5054754;28;19921;-63
2024/04/01 03:45:36;;;;;;;;;;;;;;;;;;5053423;28;19925;-64
2024/04/01 03:48:02;;;;;;;;;;;;;;;;;;5052014;28;19925;-64
2024/04/01 03:50:28;;;;;;;;;;;;;;;;;;5053539;28;19921;-63
2024/04/01 03:52:54;;;;;;;;;;;;;;;;;;5040645;28;20268;-64
2024/04/01 03:55:20;;;;;;;;;;;;;;;;;;5052632;28;20003;-64
2024/04/01 03:57:46;;;;;;;;;;;;;;;;;;5038589;28;19929;-64
2024/04/01 04:00:13;;;;;;;;;;;;;;;;;;5057983;28;19921;-63
2024/04/01 04:02:42;;;;;;;;;;;;;;;;;;5053891;28;19972;-63
2024/04/01 04:05:08;;;;;;;;;;;;;;;;;;5034775;28;20015;-63
2024/04/01 04:07:34;;;;;;;;;;;;;;;;;;5044953;28;20015;-63
2024/04/01 04:10:03;;;;;;;;;;;;;;;;;;5019929;28;20441;-63
2024/04/01 04:12:30;;;;;;;;;;;;;;;;;;5052759;28;19925;-64
2024/04/01 04:14:56;;;;;;;;;;;;;;;;;;5053256;28;19925;-64
2024/04/01 04:17:22;;;;;;;;;;;;;;;;;;5053110;28;20023;-63
2024/04/01 04:19:48;;;;;;;;;;;;;;;;;;5053392;28;19924;-63
2024/04/01 04:22:14;;;;;;;;;;;;;;;;;;5051596;28;19927;-63
2024/04/01 04:24:42;;;;;;;;;;;;;;;;;;5033827;28;19932;-63
2024/04/01 04:27:08;;;;;;;;;;;;;;;;;;5034923;28;19928;-63
2024/04/01 04:29:34;;;;;;;;;;;;;;;;;;5034497;28;19924;-63
2024/04/01 04:32:00;;;;;;;;;;;;;;;;;;5031491;28;20388;-63
2024/04/01 04:34:26;;;;;;;;;;;;;;;;;;5050227;28;19920;-63
2024/04/01 04:36:52;;;;;;;;;;;;;;;;;;5051508;28;19928;-63
2024/04/01 04:39:24;;;;;;;;;;;;;;;;;;5033949;28;20261;-63
2024/04/01 04:41:50;;;;;;;;;;;;;;;;;;5054328;28;19928;-63
2024/04/01 04:44:16;;;;;;;;;;;;;;;;;;5051213;28;19921;-63
2024/04/01 04:46:42;;;;;;;;;;;;;;;;;;5054675;28;20034;-64
2024/04/01 04:49:08;;;;;;;;;;;;;;;;;;5049389;28;20366;-63
2024/04/01 04:51:33;;;;;;;;;;;;;;;;;;5054310;28;20331;-63
2024/04/01 04:54:00;;;;;;;;;;;;;;;;;;5049099;28;19921;-64
2024/04/01 04:56:25;;;;;;;;;;;;;;;;;;5050140;28;20000;-64
2024/04/01 04:58:53;;;;;;;;;;;;;;;;;;5050162;28;20383;-64
2024/04/01 05:01:19;;;;;;;;;;;;;;;;;;5052529;28;19955;-63
2024/04/01 05:03:45;;;;;;;;;;;;;;;;;;5052248;28;20563;-64
2024/04/01 05:06:11;;;;;;;;;;;;;;;;;;5051515;28;20323;-63
2024/04/01 05:08:38;;;;;;;;;;;;;;;;;;5051711;28;19921;-63
2024/04/01 05:11:07;;;;;;;;;;;;;;;;;;5049579;28;19920;-63
2024/04/01 05:13:33;;;;;;;;;;;;;;;;;;5054355;28;20014;-64
2024/04/01 05:15:59;;;;;;;;;;;;;;;;;;5050433;28;19983;-63
2024/04/01 05:18:26;;;;;;;;;;;;;;;;;;5032426;28;19940;-63
2024/04/01 05:20:52;;;;;;;;;;;;;;;;;;5050927;28;19936;-64
2024/04/01 05:23:18;;;;;;;;;;;;;;;;;;5032686;28;19925;-63
2024/04/01 05:25:45;;;;;;;;;;;;;;;;;;5041322;28;19925;-63
2024/04/01 05:28:11;;;;;;;;;;;;;;;;;;5049118;28;19955;-63
2024/04/01 05:30:37;;;;;;;;;;;;;;;;;;5031825;28;20399;-63
2024/04/01 05:33:03;;;;;;;;;;;;;;;;;;5052262;28;20626;-63
2024/04/01 05:35:33;;;;;;;;;;;;;;;;;;5033665;28;19925;-63
2024/04/01 05:37:59;;;;;;;;;;;;;;;;;;5031909;28;19966;-63
2024/04/01 05:40:26;;;;;;;;;;;;;;;;;;5043345;28;20006;-63
2024/04/01 05:42:51;;;;;;;;;;;;;;;;;;5042246;28;19924;-63
2024/04/01 05:45:17;;;;;;;;;;;;;;;;;;5049421;28;20295;-63
2024/04/01 05:47:43;;;;;;;;;;;;;;;;;;5047999;28;19922;-63
2024/04/01 05:50:09;;;;;;;;;;;;;;;;;;5052025;28;19925;-63
2024/04/01 05:52:35;;;;;;;;;;;;;;;;;;5032454;28;20322;-64
2024/04/01 05:55:02;;;;;;;;;;;;;;;;;;5035598;28;20296;-63
2024/04/01 05:57:28;;;;;;;;;;;;;;;;;;5033977;28;19936;-63
2024/04/01 05:59:54;;;;;;;;;;;;;;;;;;5049307;28;19929;-63
2024/04/01 06:02:20;;;;;;;;;;;;;;;;;;5047736;28;19927;-63
2024/04/01 06:04:45;;;;;;;;;;;;;;;;;;5049787;28;19921;-63
2024/04/01 06:07:11;;;;;;;;;;;;;;;;;;5049997;28;19928;-63
2024/04/01 06:09:37;;;;;;;;;;;;;;;;;;5036399;28;19921;-63
2024/04/01 06:12:04;;;;;;;;;;;;;;;;;;5048204;28;19975;-63
2024/04/01 06:14:30;;;;;;;;;;;;;;;;;;5058276;28;19982;-63
2024/04/01 06:16:56;;;;;;;;;;;;;;;;;;5050732;28;20399;-63
2024/04/01 06:19:22;;;;;;;;;;;;;;;;;;5058221;28;20023;-63
2024/04/01 06:21:47;;;;;;;;;;;;;;;;;;5055710;28;19921;-63
2024/04/01 06:24:13;;;;;;;;;;;;;;;;;;5035430;28;19924;-63
2024/04/01 06:26:39;;;;;;;;;;;;;;;;;;5056680;28;19947;-63
2024/04/01 06:29:06;;;;;;;;;;;;;;;;;;5052544;28;19971;-63
2024/04/01 06:31:32;;;;;;;;;;;;;;;;;;5050464;28;19936;-63
2024/04/01 06:33:58;;;;;;;;;;;;;;;;;;5055056;28;19921;-63
2024/04/01 06:36:24;;;;;;;;;;;;;;;;;;5055335;28;19944;-64
2024/04/01 06:38:50;;;;;;;;;;;;;;;;;;5036805;28;19976;-63
2024/04/01 06:41:16;;;;;;;;;;;;;;;;;;5048573;28;19964;-63
2024/04/01 06:43:42;;;;;;;;;;;;;;;;;;5020248;28;20428;-63
2024/04/01 06:46:08;;;;;;;;;;;;;;;;;;5054876;28;19921;-63
2024/04/01 06:48:38;;;;;;;;;;;;;;;;;;5044524;28;20388;-64
2024/04/01 06:51:04;;;;;;;;;;;;;;;;;;5054586;28;19920;-63
2024/04/01 06:53:29;;;;;;;;;;;;;;;;;;5055028;28;20352;-64
2024/04/01 06:55:55;;;;;;;;;;;;;;;;;;5048907;28;19925;-64
2024/04/01 06:58:21;;;;;;;;;;;;;;;;;;5054643;28;20069;-64
2024/04/01 07:00:47;;;;;;;;;;;;;;;;;;5036523;28;20033;-64
2024/04/01 07:03:14;;;;;;;;;;;;;;;;;;5054554;28;20051;-64
2024/04/01 07:05:40;;;;;;;;;;;;;;;;;;5058516;28;19928;-64
2024/04/01 07:08:06;;;;;;;;;;;;;;;;;;5056955;28;19921;-64
2024/04/01 07:10:32;;;;;;;;;;;;;;;;;;5054841;28;19928;-64
2024/04/01 07:12:58;;;;;;;;;;;;;;;;;;5044202;28;20245;-64
2024/04/01 07:15:26;;;;;;;;;;;;;;;;;;5053408;28;19975;-64
2024/04/01 07:17:52;;;;;;;;;;;;;;;;;;5052524;28;19932;-64
2024/04/01 07:20:17;;;;;;;;;;;;;;;;;;5054490;28;20249;-64
2024/04/01 07:22:43;;;;;;;;;;;;;;;;;;5036340;28;19920;-64
2024/04/01 07:25:09;;;;;;;;;;;;;;;;;;5054132;28;19929;-64
2024/04/01 07:27:35;;;;;;;;;;;;;;;;;;5053742;28;19921;-64
2024/04/01 07:30:02;;;;;;;;;;;;;;;;;;5052568;28;19932;-63
2024/04/01 07:32:28;;;;;;;;;;;;;;;;;;5044293;28;20269;-64
2024/04/01 07:34:54;;;;;;;;;;;;;;;;;;5042615;28;20012;-64
2024/04/01 07:37:20;;;;;;;;;;;;;;;;;;5034696;28;19920;-64
2024/04/01 07:39:46;;;;;;;;;;;;;;;;;;5053873;28;19936;-64
2024/04/01 07:42:12;;;;;;;;;;;;;;;;;;5053499;28;19932;-64
2024/04/01 07:44:38;;;;;;;;;;;;;;;;;;5053583;28;20435;-64
2024/04/01 07:47:04;;;;;;;;;;;;;;;;;;5054063;28;19921;-64
2024/04/01 07:49:30;;;;;;;;;;;;;;;;;;5055943;28;19925;-64
2024/04/01 07:51:56;;;;;;;;;;;;;;;;;;5053563;28;19924;-63
2024/04/01 07:54:23;;;;;;;;;;;;;;;;;;5025957;28;19924;-64
2024/04/01 07:56:49;;;;;;;;;;;;;;;;;;5034140;28;19921;-63
2024/04/01 07:59:15;;;;;;;;;;;;;;;;;;5048968;28;19924;-64
2024/04/01 08:01:41;;;;;;;;;;;;;;;;;;5051398;28;19943;-64
2024/04/01 08:04:07;;;;;;;;;;;;;;;;;;5054127;28;19932;-64
2024/04/01 08:06:33;;;;;;;;;;;;;;;;;;5034975;28;19936;-64
2024/04/01 08:08:59;;;;;;;;;;;;;;;;;;5055498;28;19927;-64
2024/04/01 08:11:25;;;;;;;;;;;;;;;;;;5039678;28;19925;-64
2024/04/01 08:13:51;;;;;;;;;;;;;;;;;;5054116;28;19925;-63
2024/04/01 08:16:17;;;;;;;;;;;;;;;;;;5035159;28;19921;-64
2024/04/01 08:18:43;;;;;;;;;;;;;;;;;;5033132;28;19948;-64
2024/04/01 08:21:09;;;;;;;;;;;;;;;;;;5051812;28;20690;-64
2024/04/01 08:23:34;;;;;;;;;;;;;;;;;;5034895;28;19924;-63
2024/04/01 08:26:00;;;;;;;;;;;;;;;;;;5056266;28;19925;-62
2024/04/01 08:28:27;;;;;;;;;;;;;;;;;;5050549;28;19921;-64
2024/04/01 08:30:53;;;;;;;;;;;;;;;;;;5032611;28;19951;-62
2024/04/01 08:33:20;;;;;;;;;;;;;;;;;;5054080;28;19921;-62
2024/04/01 08:35:46;;;;;;;;;;;;;;;;;;5054355;28;19927;-62
2024/04/01 08:38:12;;;;;;;;;;;;;;;;;;5046201;28;19932;-63
2024/04/01 08:40:37;;;;;;;;;;;;;;;;;;5048643;28;20529;-62
2024/04/01 08:43:03;;;;;;;;;;;;;;;;;;5044440;28;19927;-63
2024/04/01 08:45:29;;;;;;;;;;;;;;;;;;5047835;28;20039;-63
2024/04/01 08:47:55;;;;;;;;;;;;;;;;;;5046222;28;20023;-63
2024/04/01 08:50:21;;;;;;;;;;;;;;;;;;5051288;28;20349;-63
2024/04/01 08:52:47;;;;;;;;;;;;;;;;;;5047224;28;19925;-64
2024/04/01 08:55:13;;;;;;;;;;;;;;;;;;5052182;28;20485;-64
2024/04/01 08:57:39;;;;;;;;;;;;;;;;;;5011715;28;19936;-64
2024/04/01 09:00:05;;;;;;;;;;;;;;;;;;5047144;28;19921;-64
2024/04/01 09:02:31;;;;;;;;;;;;;;;;;;5049476;28;19925;-63
2024/04/01 09:04:56;;;;;;;;;;;;;;;;;;5047267;28;20669;-64
2024/04/01 09:07:22;;;;;;;;;;;;;;;;;;5026754;28;19929;-64
2024/04/01 09:09:48;;;;;;;;;;;;;;;;;;5051141;28;19921;-63
2024/04/01 09:12:15;;;;;;;;;;;;;;;;;;5031593;28;19921;-64
2024/04/01 09:14:41;;;;;;;;;;;;;;;;;;5050786;28;20396;-63
2024/04/01 09:17:06;;;;;;;;;;;;;;;;;;5047999;28;19921;-63
2024/04/01 09:19:32;;;;;;;;;;;;;;;;;;5050271;28;19939;-64
2024/04/01 09:22:01;;;;;;;;;;;;;;;;;;5052288;28;19928;-64
2024/04/01 09:24:27;;;;;;;;;;;;;;;;;;5052022;28;19925;-64
2024/04/01 09:26:53;;;;;;;;;;;;;;;;;;5046622;28;19936;-64
2024/04/01 09:29:19;;;;;;;;;;;;;;;;;;5031605;28;20269;-64
2024/04/01 09:31:45;;;;;;;;;;;;;;;;;;5014212;28;20011;-64
2024/04/01 09:34:11;;;;;;;;;;;;;;;;;;5043199;28;20113;-64
2024/04/01 09:36:37;;;;;;;;;;;;;;;;;;5052034;28;19921;-64
2024/04/01 09:39:03;;;;;;;;;;;;;;;;;;5051903;28;20291;-64
2024/04/01 09:41:29;;;;;;;;;;;;;;;;;;5051799;28;19925;-64
2024/04/01 09:43:55;;;;;;;;;;;;;;;;;;5046154;28;19927;-64
2024/04/01 09:46:21;;;;;;;;;;;;;;;;;;5034670;28;20453;-64
2024/04/01 09:48:47;;;;;;;;;;;;;;;;;;5031935;28;19921;-64
2024/04/01 09:51:13;;;;;;;;;;;;;;;;;;5043162;28;19948;-64
2024/04/01 09:53:39;;;;;;;;;;;;;;;;;;5052003;28;19964;-64
2024/04/01 09:56:05;;;;;;;;;;;;;;;;;;5051913;28;19948;-64
2024/04/01 09:58:32;;;;;;;;;;;;;;;;;;5050836;28;19952;-64
2024/04/01 10:00:58;;;;;;;;;;;;;;;;;;5043448;28;20008;-64
2024/04/01 10:03:24;;;;;;;;;;;;;;;;;;5031796;28;20016;-64
2024/04/01 10:05:50;;;;;;;;;;;;;;;;;;5033236;28;20031;-64
2024/04/01 10:08:16;;;;;;;;;;;;;;;;;;5051762;28;19927;-64
2024/04/01 10:10:42;;;;;;;;;;;;;;;;;;5047952;28;19925;-64
2024/04/01 10:13:08;;;;;;;;;;;;;;;;;;5032085;28;19996;-64
2024/04/01 10:15:34;;;;;;;;;;;;;;;;;;5022532;28;19931;-64
2024/04/01 10:18:00;;;;;;;;;;;;;;;;;;5049970;28;20347;-64
2024/04/01 10:20:26;;;;;;;;;;;;;;;;;;5051067;28;19951;-64
2024/04/01 10:22:51;;;;;;;;;;;;;;;;;;5050959;28;19925;-64
2024/04/01 10:25:17;;;;;;;;;;;;;;;;;;5050525;28;20434;-64
2024/04/01 10:27:43;;;;;;;;;;;;;;;;;;5033224;28;19921;-64
2024/04/01 10:30:09;;;;;;;;;;;;;;;;;;5051329;28;19921;-64
2024/04/01 10:32:35;;;;;;;;;;;;;;;;;;5047367;28;19921;-64
2024/04/01 10:35:01;;;;;;;;;;;;;;;;;;5050833;28;19925;-64
2024/04/01 10:37:27;;;;;;;;;;;;;;;;;;5032266;28;19924;-64
2024/04/01 10:39:53;;;;;;;;;;;;;;;;;;5031673;28;20430;-64
2024/04/01 10:42:19;;;;;;;;;;;;;;;;;;5050736;28;19927;-64
2024/04/01 10:44:45;;;;;;;;;;;;;;;;;;5039151;28;19983;-64
2024/04/01 10:47:10;;;;;;;;;;;;;;;;;;5031553;28;19929;-64
2024/04/01 10:49:36;;;;;;;;;;;;;;;;;;5030849;28;20380;-64
2024/04/01 10:52:02;;;;;;;;;;;;;;;;;;5013396;28;19933;-64
2024/04/01 10:54:28;;;;;;;;;;;;;;;;;;5031138;28;19925;-64
2024/04/01 10:56:54;;;;;;;;;;;;;;;;;;5031197;28;19968;-64
2024/04/01 10:59:20;;;;;;;;;;;;;;;;;;5043393;28;19931;-64
2024/04/01 11:01:47;;;;;;;;;;;;;;;;;;5048930;28;20287;-64
2024/04/01 11:04:13;;;;;;;;;;;;;;;;;;5017988;28;19967;-64
2024/04/01 11:06:39;;;;;;;;;;;;;;;;;;5036237;28;19921;-64
2024/04/01 11:09:05;;;;;;;;;;;;;;;;;;5036773;28;20399;-64
2024/04/01 11:11:31;;;;;;;;;;;;;;;;;;5054460;28;19921;-64
2024/04/01 11:13:57;;;;;;;;;;;;;;;;;;5051110;28;20272;-64
2024/04/01 11:16:23;;;;;;;;;;;;;;;;;;5053658;28;19928;-64
2024/04/01 11:18:49;;;;;;;;;;;;;;;;;;5046390;28;19925;-64
2024/04/01 11:21:15;;;;;;;;;;;;;;;;;;5034854;28;19921;-64
2024/04/01 11:23:41;;;;;;;;;;;;;;;;;;5022148;28;19927;-64
2024/04/01 11:26:07;;;;;;;;;;;;;;;;;;5054207;28;20267;-64
2024/04/01 11:28:32;;;;;;;;;;;;;;;;;;5054606;28;19931;-63
2024/04/01 11:30:58;;;;;;;;;;;;;;;;;;5036703;28;19920;-64
2024/04/01 11:33:24;;;;;;;;;;;;;;;;;;5036237;28;19925;-64
2024/04/01 11:35:50;;;;;;;;;;;;;;;;;;5053818;28;20482;-64
2024/04/01 11:38:17;;;;;;;;;;;;;;;;;;5051557;28;19929;-64
2024/04/01 11:40:42;;;;;;;;;;;;;;;;;;5035660;28;19990;-64
2024/04/01 11:43:08;;;;;;;;;;;;;;;;;;5054090;28;19960;-64
2024/04/01 11:45:35;;;;;;;;;;;;;;;;;;5054231;28;19975;-64
2024/04/01 11:48:01;;;;;;;;;;;;;;;;;;5053953;28;19925;-64
2024/04/01 11:50:26;;;;;;;;;;;;;;;;;;5035664;28;20368;-64
2024/04/01 11:52:52;;;;;;;;;;;;;;;;;;5053183;28;19925;-64
2024/04/01 11:55:19;;;;;;;;;;;;;;;;;;5050249;28;19925;-64
2024/04/01 11:57:44;;;;;;;;;;;;;;;;;;5017568;28;20016;-64
2024/04/01 12:00:10;;;;;;;;;;;;;;;;;;5033038;28;20016;-64
2024/04/01 12:02:36;;;;;;;;;;;;;;;;;;5032598;28;20003;-65
2024/04/01 12:05:05;;;;;;;;;;;;;;;;;;5033019;28;20321;-64
2024/04/01 12:07:32;;;;;;;;;;;;;;;;;;5028174;28;19921;-64
2024/04/01 12:09:58;;;;;;;;;;;;;;;;;;5044069;28;20686;-64
2024/04/01 12:12:24;;;;;;;;;;;;;;;;;;5032403;28;19925;-64
2024/04/01 12:14:49;;;;;;;;;;;;;;;;;;5031982;28;19921;-63
2024/04/01 12:17:15;;;;;;;;;;;;;;;;;;5034123;28;19928;-63
2024/04/01 12:19:41;;;;;;;;;;;;;;;;;;5051143;28;19970;-63
2024/04/01 12:22:07;;;;;;;;;;;;;;;;;;5035332;28;20387;-63
2024/04/01 12:24:33;;;;;;;;;;;;;;;;;;5032478;28;19920;-63
2024/04/01 12:26:59;;;;;;;;;;;;;;;;;;5034435;28;19924;-63
2024/04/01 12:29:25;;;;;;;;;;;;;;;;;;5052889;28;19925;-64
2024/04/01 12:31:51;;;;;;;;;;;;;;;;;;5052639;28;20257;-63
2024/04/01 12:34:17;;;;;;;;;;;;;;;;;;5053107;28;19928;-63
2024/04/01 12:36:43;;;;;;;;;;;;;;;;;;5053007;28;19928;-63
2024/04/01 12:39:12;;;;;;;;;;;;;;;;;;5046635;28;19929;-63
2024/04/01 12:41:38;;;;;;;;;;;;;;;;;;5033631;28;19936;-63
2024/04/01 12:44:06;;;;;;;;;;;;;;;;;;5014756;28;19928;-61
2024/04/01 12:46:32;;;;;;;;;;;;;;;;;;5011647;28;19924;-62
2024/04/01 12:48:57;;;;;;;;;;;;;;;;;;5057853;28;19921;-63
2024/04/01 12:51:23;;;;;;;;;;;;;;;;;;5051509;28;20562;-63
2024/04/01 12:53:49;;;;;;;;;;;;;;;;;;5057621;28;19925;-64
2024/04/01 12:56:15;;;;;;;;;;;;;;;;;;5046024;28;19920;-64
2024/04/01 12:58:41;;;;;;;;;;;;;;;;;;5047548;28;19929;-64
2024/04/01 13:01:07;;;;;;;;;;;;;;;;;;5047573;28;19924;-64
2024/04/01 13:03:33;;;;;;;;;;;;;;;;;;5050211;28;19947;-65
2024/04/01 13:05:59;;;;;;;;;;;;;;;;;;5051724;28;19920;-65
2024/04/01 13:08:25;;;;;;;;;;;;;;;;;;5051055;28;19927;-64
2024/04/01 13:10:51;;;;;;;;;;;;;;;;;;5033356;28;19925;-65
2024/04/01 13:13:17;;;;;;;;;;;;;;;;;;5051348;28;20280;-65
2024/04/01 13:15:43;;;;;;;;;;;;;;;;;;5036209;28;19925;-64
2024/04/01 13:18:09;;;;;;;;;;;;;;;;;;5042833;28;19947;-65
2024/04/01 13:20:35;;;;;;;;;;;;;;;;;;5049099;28;19978;-65
2024/04/01 13:23:01;;;;;;;;;;;;;;;;;;5025042;28;19929;-65
2024/04/01 13:25:27;;;;;;;;;;;;;;;;;;5028912;28;19991;-65
2024/04/01 13:27:53;;;;;;;;;;;;;;;;;;5031475;28;20388;-65
2024/04/01 13:30:19;;;;;;;;;;;;;;;;;;5044777;28;19921;-65
2024/04/01 13:32:45;;;;;;;;;;;;;;;;;;5018787;28;20005;-65
2024/04/01 13:35:11;;;;;;;;;;;;;;;;;;5019664;28;19925;-64
2024/04/01 13:37:37;;;;;;;;;;;;;;;;;;5037006;28;19925;-65
2024/04/01 13:40:03;;;;;;;;;;;;;;;;;;5034013;23;19972;-66
2024/04/01 13:42:29;;;;;;;;;;;;;;;;;;5068106;28;19920;-67
2024/04/01 13:44:55;;;;;;;;;;;;;;;;;;5065476;28;19924;-67
2024/04/01 13:47:21;;;;;;;;;;;;;;;;;;5047564;28;19971;-66
2024/04/01 13:49:47;;;;;;;;;;;;;;;;;;5035971;28;20336;-68
2024/04/01 13:52:13;;;;;;;;;;;;;;;;;;5048315;28;20027;-65
2024/04/01 13:54:39;;;;;;;;;;;;;;;;;;5068103;28;20015;-67
2024/04/01 13:57:05;;;;;;;;;;;;;;;;;;5069044;28;19924;-67
2024/04/01 13:59:31;;;;;;;;;;;;;;;;;;5069979;28;20433;-66
2024/04/01 14:01:57;;;;;;;;;;;;;;;;;;5068854;28;19927;-67
2024/04/01 14:04:23;;;;;;;;;;;;;;;;;;5071027;28;19974;-68
2024/04/01 14:06:49;;;;;;;;;;;;;;;;;;5069593;28;20338;-67
2024/04/01 14:09:15;;;;;;;;;;;;;;;;;;5069054;28;19921;-67
2024/04/01 14:11:41;;;;;;;;;;;;;;;;;;5068618;28;20011;-67
2024/04/01 14:14:07;;;;;;;;;;;;;;;;;;5035773;28;20019;-67
2024/04/01 14:16:33;;;;;;;;;;;;;;;;;;5069876;28;20007;-67
2024/04/01 14:18:59;;;;;;;;;;;;;;;;;;5070847;28;19924;-67
2024/04/01 14:21:25;;;;;;;;;;;;;;;;;;5049867;28;19931;-66
2024/04/01 14:23:51;;;;;;;;;;;;;;;;;;5068790;28;19969;-66
2024/04/01 14:26:17;;;;;;;;;;;;;;;;;;5070416;28;20375;-67
2024/04/01 14:28:43;;;;;;;;;;;;;;;;;;5069894;28;19931;-67
2024/04/01 14:31:08;;;;;;;;;;;;;;;;;;5067057;28;19924;-67
2024/04/01 14:33:34;;;;;;;;;;;;;;;;;;5061317;28;19921;-66
2024/04/01 14:36:00;;;;;;;;;;;;;;;;;;5049010;28;20338;-66
2024/04/01 14:38:26;;;;;;;;;;;;;;;;;;5054796;28;19925;-66
2024/04/01 14:40:52;;;;;;;;;;;;;;;;;;5071625;28;20305;-67
2024/04/01 14:43:18;;;;;;;;;;;;;;;;;;5049536;28;19927;-66
2024/04/01 14:45:44;;;;;;;;;;;;;;;;;;5039564;28;19920;-66
2024/04/01 14:48:10;;;;;;;;;;;;;;;;;;5072152;28;19926;-66
2024/04/01 14:50:36;;;;;;;;;;;;;;;;;;5055977;28;19931;-66
2024/04/01 14:53:02;;;;;;;;;;;;;;;;;;5074062;28;19921;-66
2024/04/01 14:55:28;;;;;;;;;;;;;;;;;;5071818;28;20277;-66
2024/04/01 14:57:54;;;;;;;;;;;;;;;;;;5073528;28;19931;-66
2024/04/01 15:00:20;;;;;;;;;;;;;;;;;;5073668;28;20322;-66
2024/04/01 15:02:46;;;;;;;;;;;;;;;;;;5055607;28;19920;-66
2024/04/01 15:05:12;;;;;;;;;;;;;;;;;;5074825;28;19969;-66
2024/04/01 15:07:38;;;;;;;;;;;;;;;;;;5056464;28;19924;-66
2024/04/01 15:10:04;;;;;;;;;;;;;;;;;;5068971;28;19960;-66
2024/04/01 15:12:32;;;;;;;;;;;;;;;;;;5065455;28;20136;-66
2024/04/01 15:14:58;;;;;;;;;;;;;;;;;;5054262;28;19956;-66
2024/04/01 15:17:24;;;;;;;;;;;;;;;;;;5054166;28;19960;-66
2024/04/01 15:19:50;;;;;;;;;;;;;;;;;;5071738;28;20453;-66
2024/04/01 15:22:16;;;;;;;;;;;;;;;;;;5066141;28;19924;-66
2024/04/01 15:24:42;;;;;;;;;;;;;;;;;;5064464;28;19929;-66
2024/04/01 15:27:08;;;;;;;;;;;;;;;;;;5071783;28;19970;-66
2024/04/01 15:29:34;;;;;;;;;;;;;;;;;;5043488;28;19990;-66
2024/04/01 15:32:00;;;;;;;;;;;;;;;;;;5047458;28;19921;-66
2024/04/01 15:34:26;;;;;;;;;;;;;;;;;;5068830;28;19924;-66
2024/04/01 15:36:52;;;;;;;;;;;;;;;;;;5072817;28;19924;-66
2024/04/01 15:39:18;;;;;;;;;;;;;;;;;;5044050;28;19935;-67
2024/04/01 15:41:44;;;;;;;;;;;;;;;;;;5056755;28;19928;-67
2024/04/01 15:44:11;;;;;;;;;;;;;;;;;;5063508;28;19929;-65
2024/04/01 15:46:36;;;;;;;;;;;;;;;;;;5071478;28;19921;-67
2024/04/01 15:49:02;;;;;;;;;;;;;;;;;;5050424;28;20318;-65
2024/04/01 15:51:28;;;;;;;;;;;;;;;;;;5072821;28;19943;-66
2024/04/01 15:53:54;;;;;;;;;;;;;;;;;;5073246;28;19966;-66
2024/04/01 15:56:21;;;;;;;;;;;;;;;;;;5072280;28;20351;-66
2024/04/01 15:58:47;;;;;;;;;;;;;;;;;;5071252;28;19977;-66
2024/04/01 16:01:13;;;;;;;;;;;;;;;;;;5053581;28;20431;-66
2024/04/01 16:03:38;;;;;;;;;;;;;;;;;;5070730;28;20003;-66
2024/04/01 16:06:04;;;;;;;;;;;;;;;;;;5072476;28;20367;-66
2024/04/01 16:08:30;;;;;;;;;;;;;;;;;;5071563;28;19920;-66
2024/04/01 16:10:56;;;;;;;;;;;;;;;;;;5073727;28;19939;-66
2024/04/01 16:13:22;;;;;;;;;;;;;;;;;;5061547;28;19927;-66
2024/04/01 16:15:48;;;;;;;;;;;;;;;;;;5069698;28;19920;-66
2024/04/01 16:18:14;;;;;;;;;;;;;;;;;;5072890;28;19933;-66
2024/04/01 16:20:40;;;;;;;;;;;;;;;;;;5067347;28;19924;-67
2024/04/01 16:23:07;;;;;;;;;;;;;;;;;;5051328;28;20356;-66
2024/04/01 16:25:33;;;;;;;;;;;;;;;;;;5068536;28;19974;-66
2024/04/01 16:28:00;;;;;;;;;;;;;;;;;;5072219;28;19920;-66
2024/04/01 16:30:26;;;;;;;;;;;;;;;;;;5068546;28;19929;-66
2024/04/01 16:32:52;;;;;;;;;;;;;;;;;;5067434;28;20023;-67
2024/04/01 16:35:17;;;;;;;;;;;;;;;;;;5070017;28;20422;-67
2024/04/01 16:37:43;;;;;;;;;;;;;;;;;;5063459;28;20314;-67